createdAt,value
2022-09-09T00:00:41.849Z,99305.47
2022-09-09T00:01:24.664Z,99303.84
2022-09-09T00:02:18.330Z,99304.00
2022-09-09T00:03:03.728Z,99301.97
2022-09-09T00:03:58.303Z,99297.63
2022-09-09T00:04:51.800Z,99299.31
2022-09-09T00:05:43.138Z,99295.63
2022-09-09T00:06:40.540Z,99293.94
2022-09-09T00:07:37.724Z,99293.78
2022-09-09T00:08:34.955Z,99295.63
2022-09-09T00:09:25.974Z,99297.63
2022-09-09T00:10:19.271Z,99295.28
2022-09-09T00:11:10.498Z,99290.97
2022-09-09T00:11:54.620Z,99292.97
2022-09-09T00:12:53.311Z,99290.28
2022-09-09T00:14:07.655Z,99282.94
2022-09-09T00:14:49.790Z,99283.59
2022-09-09T00:15:41.631Z,99280.25
2022-09-09T00:16:23.719Z,99281.25
2022-09-09T00:17:14.042Z,99281.25
2022-09-09T00:18:12.533Z,99276.91
2022-09-09T00:19:07.343Z,99279.56
2022-09-09T00:20:10.741Z,99276.91
2022-09-09T00:21:07.669Z,99283.94
2022-09-09T00:22:02.764Z,99285.31
2022-09-09T00:23:05.432Z,99279.94
2022-09-09T00:24:00.947Z,99276.25
2022-09-09T00:24:52.126Z,99280.59
2022-09-09T00:26:00.082Z,99268.38
2022-09-09T00:26:50.720Z,99272.56
2022-09-09T00:27:43.471Z,99271.75
2022-09-09T00:28:40.378Z,99278.94
2022-09-09T00:29:43.181Z,99272.75
2022-09-09T00:30:38.185Z,99269.41
2022-09-09T00:31:35.678Z,99260.88
2022-09-09T00:32:27.901Z,99273.56
2022-09-09T00:33:32.261Z,99271.25
2022-09-09T00:34:29.392Z,99272.97
2022-09-09T00:35:30.393Z,99272.63
2022-09-09T00:36:24.010Z,99275.28
2022-09-09T00:37:19.114Z,99271.28
2022-09-09T00:38:12.860Z,99275.81
2022-09-09T00:39:06.404Z,99275.00
2022-09-09T00:39:56.795Z,99272.78
2022-09-09T00:40:47.322Z,99282.34
2022-09-09T00:41:40.976Z,99271.63
2022-09-09T00:42:38.630Z,99275.16
2022-09-09T00:43:39.114Z,99272.50
2022-09-09T00:44:46.579Z,99272.84
2022-09-09T00:45:50.533Z,99270.81
2022-09-09T00:46:52.990Z,99268.66
2022-09-09T00:47:56.895Z,99264.69
2022-09-09T00:48:48.175Z,99260.97
2022-09-09T00:49:49.396Z,99267.00
2022-09-09T00:50:53.836Z,99266.63
2022-09-09T00:51:59.194Z,99258.78
2022-09-09T00:53:11.740Z,99262.66
2022-09-09T00:54:17.576Z,99258.28
2022-09-09T00:55:24.310Z,99262.31
2022-09-09T00:56:14.131Z,99265.31
2022-09-09T00:56:58.725Z,99265.03
2022-09-09T00:57:56.128Z,99259.97
2022-09-09T00:58:49.597Z,99260.31
2022-09-09T00:59:47.149Z,99259.97
2022-09-09T01:00:39.787Z,99260.31
2022-09-09T01:01:33.197Z,99259.16
2022-09-09T01:02:25.548Z,99260.31
2022-09-09T01:03:18.616Z,99256.13
2022-09-09T01:04:10.609Z,99262.34
2022-09-09T01:05:00.164Z,99265.03
2022-09-09T01:05:53.839Z,99260.66
2022-09-09T01:06:46.193Z,99260.66
2022-09-09T01:07:36.209Z,99259.00
2022-09-09T01:08:33.502Z,99265.19
2022-09-09T01:09:40.249Z,99262.81
2022-09-09T01:10:53.640Z,99264.00
2022-09-09T01:11:38.958Z,99270.03
2022-09-09T01:12:30.751Z,99268.69
2022-09-09T01:13:29.929Z,99259.38
2022-09-09T01:14:26.883Z,99265.38
2022-09-09T01:15:19.421Z,99264.72
2022-09-09T01:16:11.036Z,99257.34
2022-09-09T01:17:01.932Z,99259.19
2022-09-09T01:17:53.958Z,99257.69
2022-09-09T01:19:55.341Z,99261.88
2022-09-09T01:21:01.042Z,99252.81
2022-09-09T01:22:03.099Z,99260.66
2022-09-09T01:22:56.818Z,99249.66
2022-09-09T01:24:14.211Z,99254.66
2022-09-09T01:25:12.050Z,99250.63
2022-09-09T01:26:11.444Z,99253.31
2022-09-09T01:27:02.402Z,99259.00
2022-09-09T01:27:54.346Z,99261.31
2022-09-09T01:28:52.282Z,99259.69
2022-09-09T01:29:46.229Z,99267.03
2022-09-09T01:30:39.235Z,99265.56
2022-09-09T01:31:30.121Z,99261.69
2022-09-09T01:32:34.189Z,99267.03
2022-09-09T01:33:29.049Z,99261.31
2022-09-09T01:35:31.907Z,99262.69
2022-09-09T01:36:14.618Z,99264.72
2022-09-09T01:37:08.281Z,99255.97
2022-09-09T01:38:01.211Z,99254.31
2022-09-09T01:38:58.842Z,99258.50
2022-09-09T01:39:54.276Z,99258.34
2022-09-09T01:40:43.047Z,99259.19
2022-09-09T01:41:32.724Z,99258.50
2022-09-09T01:42:24.781Z,99260.19
2022-09-09T01:43:14.192Z,99257.69
2022-09-09T01:44:03.853Z,99264.72
2022-09-09T01:45:01.674Z,99252.66
2022-09-09T01:45:52.358Z,99258.00
2022-09-09T01:46:43.856Z,99248.28
2022-09-09T01:47:38.559Z,99250.31
2022-09-09T01:48:33.462Z,99254.31
2022-09-09T01:49:27.053Z,99252.66
2022-09-09T01:50:26.371Z,99244.44
2022-09-09T01:51:16.527Z,99255.00
2022-09-09T01:52:06.646Z,99251.66
2022-09-09T01:52:56.516Z,99244.78
2022-09-09T01:53:47.095Z,99253.00
2022-09-09T01:54:36.155Z,99251.81
2022-09-09T01:55:29.575Z,99255.31
2022-09-09T01:56:20.442Z,99243.13
2022-09-09T01:57:02.872Z,99254.03
2022-09-09T01:58:06.297Z,99253.00
2022-09-09T01:59:04.656Z,99254.31
2022-09-09T01:59:57.169Z,99243.44
2022-09-09T02:00:51.243Z,99243.63
2022-09-09T02:01:56.355Z,99250.97
2022-09-09T02:02:51.623Z,99248.28
2022-09-09T02:03:41.683Z,99248.97
2022-09-09T02:04:28.781Z,99247.94
2022-09-09T02:05:31.099Z,99242.59
2022-09-09T02:06:30.535Z,99245.28
2022-09-09T02:07:22.926Z,99237.41
2022-09-09T02:08:11.716Z,99241.94
2022-09-09T02:09:08.932Z,99243.63
2022-09-09T02:09:59.164Z,99245.63
2022-09-09T02:11:06.092Z,99243.63
2022-09-09T02:11:59.438Z,99249.66
2022-09-09T02:12:49.341Z,99244.31
2022-09-09T02:13:41.019Z,99242.63
2022-09-09T02:14:35.318Z,99247.28
2022-09-09T02:15:29.317Z,99248.97
2022-09-09T02:16:25.211Z,99250.97
2022-09-09T02:17:18.466Z,99248.66
2022-09-09T02:18:12.524Z,99254.66
2022-09-09T02:19:08.575Z,99253.66
2022-09-09T02:19:58.247Z,99251.13
2022-09-09T02:20:49.802Z,99250.16
2022-09-09T02:21:43.247Z,99255.50
2022-09-09T02:22:36.024Z,99245.31
2022-09-09T02:23:29.421Z,99247.16
2022-09-09T02:24:27.800Z,99252.34
2022-09-09T02:25:17.752Z,99257.03
2022-09-09T02:26:08.897Z,99259.88
2022-09-09T02:26:59.257Z,99260.72
2022-09-09T02:27:48.929Z,99259.88
2022-09-09T02:28:39.423Z,99260.53
2022-09-09T02:29:35.616Z,99262.56
2022-09-09T02:30:27.904Z,99254.53
2022-09-09T02:31:19.977Z,99256.19
2022-09-09T02:32:09.582Z,99258.88
2022-09-09T02:32:59.348Z,99254.72
2022-09-09T02:33:50.539Z,99250.00
2022-09-09T02:35:20.242Z,99259.88
2022-09-09T02:36:15.533Z,99249.66
2022-09-09T02:37:10.095Z,99249.00
2022-09-09T02:38:02.524Z,99250.50
2022-09-09T02:38:55.216Z,99254.53
2022-09-09T02:39:55.672Z,99255.88
2022-09-09T02:40:48.825Z,99254.72
2022-09-09T02:41:39.988Z,99252.38
2022-09-09T02:42:32.851Z,99257.56
2022-09-09T02:43:26.431Z,99253.69
2022-09-09T02:45:22.038Z,99256.91
2022-09-09T02:46:16.138Z,99252.72
2022-09-09T02:47:21.157Z,99250.88
2022-09-09T02:48:25.449Z,99250.69
2022-09-09T02:49:19.002Z,99248.34
2022-09-09T02:50:18.169Z,99253.19
2022-09-09T02:51:02.264Z,99253.19
2022-09-09T02:51:59.911Z,99252.03
2022-09-09T02:52:41.827Z,99245.00
2022-09-09T02:53:32.971Z,99250.34
2022-09-09T02:54:37.085Z,99252.84
2022-09-09T02:55:32.893Z,99254.03
2022-09-09T02:56:28.616Z,99255.72
2022-09-09T02:57:24.419Z,99255.06
2022-09-09T02:58:16.031Z,99254.88
2022-09-09T02:59:05.906Z,99249.88
2022-09-09T03:00:02.414Z,99250.34
2022-09-09T03:00:54.072Z,99256.06
2022-09-09T03:01:45.029Z,99254.03
2022-09-09T03:02:38.484Z,99249.53
2022-09-09T03:03:30.360Z,99261.41
2022-09-09T03:04:22.418Z,99253.69
2022-09-09T03:05:22.370Z,99244.00
2022-09-09T03:06:13.966Z,99251.72
2022-09-09T03:07:07.338Z,99258.06
2022-09-09T03:08:00.014Z,99253.88
2022-09-09T03:08:50.271Z,99257.06
2022-09-09T03:09:44.029Z,99255.72
2022-09-09T03:11:40.623Z,99261.22
2022-09-09T03:12:34.226Z,99259.38
2022-09-09T03:13:28.014Z,99256.69
2022-09-09T03:14:21.935Z,99258.91
2022-09-09T03:15:18.829Z,99265.09
2022-09-09T03:16:15.219Z,99261.75
2022-09-09T03:17:08.559Z,99260.09
2022-09-09T03:18:02.209Z,99265.09
2022-09-09T03:18:55.079Z,99252.56
2022-09-09T03:19:49.638Z,99259.75
2022-09-09T03:20:47.029Z,99263.59
2022-09-09T03:21:41.114Z,99259.41
2022-09-09T03:22:34.885Z,99266.28
2022-09-09T03:23:28.598Z,99266.75
2022-09-09T03:24:23.110Z,99261.75
2022-09-09T03:25:16.281Z,99263.44
2022-09-09T03:27:12.085Z,99259.59
2022-09-09T03:28:04.895Z,99264.72
2022-09-09T03:29:10.473Z,99258.06
2022-09-09T03:30:03.609Z,99262.44
2022-09-09T03:30:55.637Z,99254.75
2022-09-09T03:31:51.114Z,99255.22
2022-09-09T03:32:47.103Z,99258.06
2022-09-09T03:33:39.098Z,99253.06
2022-09-09T03:34:29.505Z,99258.25
2022-09-09T03:35:21.272Z,99255.91
2022-09-09T03:36:15.268Z,99253.25
2022-09-09T03:37:05.885Z,99249.75
2022-09-09T03:37:57.262Z,99250.72
2022-09-09T03:38:50.099Z,99253.06
2022-09-09T03:39:41.618Z,99248.06
2022-09-09T03:40:32.622Z,99249.22
2022-09-09T03:41:29.524Z,99241.88
2022-09-09T03:42:18.137Z,99244.69
2022-09-09T03:43:08.701Z,99253.88
2022-09-09T03:44:00.682Z,99242.03
2022-09-09T03:44:51.818Z,99244.69
2022-09-09T03:45:42.971Z,99238.69
2022-09-09T03:46:38.416Z,99246.22
2022-09-09T03:47:28.992Z,99245.69
2022-09-09T03:48:21.582Z,99250.22
2022-09-09T03:49:12.434Z,99247.72
2022-09-09T03:50:01.925Z,99248.38
2022-09-09T03:50:55.919Z,99242.38
2022-09-09T03:51:45.174Z,99247.88
2022-09-09T03:52:35.206Z,99244.88
2022-09-09T03:53:24.132Z,99244.38
2022-09-09T03:54:14.190Z,99238.69
2022-09-09T03:55:03.737Z,99242.72
2022-09-09T03:55:58.567Z,99243.19
2022-09-09T03:56:49.221Z,99246.53
2022-09-09T03:57:41.276Z,99250.56
2022-09-09T03:58:33.374Z,99247.72
2022-09-09T03:59:23.260Z,99245.72
2022-09-09T04:00:15.877Z,99246.03
2022-09-09T04:01:18.571Z,99248.88
2022-09-09T04:02:08.923Z,99252.59
2022-09-09T04:03:01.780Z,99249.25
2022-09-09T04:03:53.498Z,99248.06
2022-09-09T04:04:44.273Z,99244.38
2022-09-09T04:05:37.316Z,99242.38
2022-09-09T04:06:33.238Z,99248.88
2022-09-09T04:07:24.777Z,99251.38
2022-09-09T04:08:17.402Z,99255.25
2022-09-09T04:09:08.436Z,99254.44
2022-09-09T04:09:59.126Z,99248.06
2022-09-09T04:10:50.048Z,99253.09
2022-09-09T04:11:47.969Z,99253.41
2022-09-09T04:12:38.377Z,99250.06
2022-09-09T04:13:29.218Z,99252.25
2022-09-09T04:14:19.723Z,99247.41
2022-09-09T04:15:09.009Z,99249.75
2022-09-09T04:16:00.347Z,99253.06
2022-09-09T04:16:55.210Z,99256.09
2022-09-09T04:17:45.759Z,99254.75
2022-09-09T04:18:36.140Z,99252.59
2022-09-09T04:19:26.358Z,99248.41
2022-09-09T04:20:18.122Z,99252.44
2022-09-09T04:21:12.691Z,99254.09
2022-09-09T04:22:04.149Z,99253.09
2022-09-09T04:22:55.926Z,99251.25
2022-09-09T04:23:47.320Z,99252.59
2022-09-09T04:24:39.041Z,99247.41
2022-09-09T04:25:32.770Z,99252.09
2022-09-09T04:26:22.588Z,99258.63
2022-09-09T04:27:11.215Z,99256.44
2022-09-09T04:27:59.293Z,99254.09
2022-09-09T04:28:49.183Z,99257.63
2022-09-09T04:29:38.517Z,99252.09
2022-09-09T04:30:25.435Z,99252.75
2022-09-09T04:31:22.397Z,99247.41
2022-09-09T04:32:11.024Z,99257.94
2022-09-09T04:33:01.039Z,99255.59
2022-09-09T04:33:50.660Z,99252.28
2022-09-09T04:35:18.207Z,99253.75
2022-09-09T04:36:12.216Z,99261.13
2022-09-09T04:37:01.071Z,99257.44
2022-09-09T04:37:49.998Z,99259.09
2022-09-09T04:38:38.693Z,99259.28
2022-09-09T04:39:27.005Z,99256.25
2022-09-09T04:40:14.520Z,99261.47
2022-09-09T04:41:05.739Z,99255.78
2022-09-09T04:41:56.560Z,99254.59
2022-09-09T04:42:44.505Z,99251.94
2022-09-09T04:43:33.660Z,99254.59
2022-09-09T04:44:25.027Z,99257.44
2022-09-09T04:45:16.755Z,99260.13
2022-09-09T04:46:12.790Z,99253.41
2022-09-09T04:47:01.847Z,99254.22
2022-09-09T04:47:50.879Z,99255.91
2022-09-09T04:48:39.102Z,99257.44
2022-09-09T04:49:27.505Z,99254.78
2022-09-09T04:50:17.426Z,99254.44
2022-09-09T04:51:05.379Z,99255.44
2022-09-09T04:51:57.560Z,99256.91
2022-09-09T04:52:46.323Z,99253.75
2022-09-09T04:53:35.999Z,99261.59
2022-09-09T04:54:25.928Z,99256.59
2022-09-09T04:55:14.665Z,99254.78
2022-09-09T04:56:03.910Z,99259.09
2022-09-09T04:56:55.936Z,99253.09
2022-09-09T04:57:45.603Z,99259.09
2022-09-09T04:58:33.649Z,99254.78
2022-09-09T04:59:22.139Z,99252.09
2022-09-09T05:00:10.104Z,99256.59
2022-09-09T05:00:56.318Z,99259.09
2022-09-09T05:01:46.926Z,99259.28
2022-09-09T05:02:37.633Z,99255.44
2022-09-09T05:03:26.966Z,99248.56
2022-09-09T05:04:15.981Z,99248.75
2022-09-09T05:05:03.956Z,99247.09
2022-09-09T05:05:55.233Z,99257.78
2022-09-09T05:06:46.293Z,99248.56
2022-09-09T05:07:43.046Z,99257.44
2022-09-09T05:08:35.140Z,99252.09
2022-09-09T05:09:25.893Z,99248.75
2022-09-09T05:10:16.867Z,99250.41
2022-09-09T05:11:13.082Z,99253.75
2022-09-09T05:12:04.893Z,99254.09
2022-09-09T05:12:57.889Z,99252.09
2022-09-09T05:13:50.287Z,99258.63
2022-09-09T05:15:20.397Z,99254.59
2022-09-09T05:16:15.074Z,99266.47
2022-09-09T05:17:03.807Z,99253.09
2022-09-09T05:17:53.164Z,99252.44
2022-09-09T05:18:43.932Z,99261.13
2022-09-09T05:19:37.194Z,99264.78
2022-09-09T05:20:22.446Z,99266.47
2022-09-09T05:21:18.461Z,99267.13
2022-09-09T05:22:08.592Z,99263.16
2022-09-09T05:22:57.754Z,99258.94
2022-09-09T05:23:52.075Z,99263.81
2022-09-09T05:25:20.334Z,99259.63
2022-09-09T05:26:17.227Z,99261.28
2022-09-09T05:27:05.569Z,99262.47
2022-09-09T05:27:53.685Z,99258.63
2022-09-09T05:28:41.636Z,99262.47
2022-09-09T05:29:30.508Z,99262.13
2022-09-09T05:30:17.686Z,99262.81
2022-09-09T05:31:19.532Z,99259.28
2022-09-09T05:32:11.475Z,99263.16
2022-09-09T05:33:01.814Z,99262.13
2022-09-09T05:33:52.982Z,99254.78
2022-09-09T05:34:44.681Z,99260.13
2022-09-09T05:35:36.114Z,99260.63
2022-09-09T05:36:37.114Z,99263.16
2022-09-09T05:37:28.592Z,99260.47
2022-09-09T05:38:20.375Z,99266.00
2022-09-09T05:39:11.983Z,99263.81
2022-09-09T05:40:04.475Z,99259.78
2022-09-09T05:40:56.301Z,99260.13
2022-09-09T05:41:55.872Z,99264.44
2022-09-09T05:42:49.264Z,99255.78
2022-09-09T05:43:39.852Z,99258.09
2022-09-09T05:44:29.937Z,99256.94
2022-09-09T05:45:19.529Z,99263.47
2022-09-09T05:46:12.349Z,99258.63
2022-09-09T05:47:07.762Z,99255.78
2022-09-09T05:47:56.422Z,99259.09
2022-09-09T05:48:44.520Z,99259.44
2022-09-09T05:49:33.524Z,99262.47
2022-09-09T05:50:22.038Z,99261.13
2022-09-09T05:51:12.021Z,99259.63
2022-09-09T05:52:10.881Z,99266.81
2022-09-09T05:53:01.111Z,99260.31
2022-09-09T05:53:52.131Z,99262.13
2022-09-09T05:54:44.688Z,99259.44
2022-09-09T05:55:36.097Z,99269.81
2022-09-09T05:56:28.898Z,99268.16
2022-09-09T05:58:22.469Z,99266.81
2022-09-09T05:59:12.602Z,99263.31
2022-09-09T06:00:05.553Z,99263.47
2022-09-09T06:00:55.518Z,99262.47
2022-09-09T06:01:50.165Z,99260.97
2022-09-09T06:02:41.609Z,99263.00
2022-09-09T06:03:34.358Z,99261.97
2022-09-09T06:04:25.805Z,99263.47
2022-09-09T06:05:17.493Z,99266.63
2022-09-09T06:06:18.420Z,99263.97
2022-09-09T06:08:12.401Z,99267.81
2022-09-09T06:09:03.138Z,99271.34
2022-09-09T06:09:55.799Z,99261.81
2022-09-09T06:10:47.289Z,99265.13
2022-09-09T06:11:42.127Z,99266.34
2022-09-09T06:12:34.094Z,99268.84
2022-09-09T06:13:25.498Z,99272.00
2022-09-09T06:14:15.490Z,99275.34
2022-09-09T06:15:04.565Z,99271.50
2022-09-09T06:16:00.180Z,99273.84
2022-09-09T06:17:00.273Z,99272.16
2022-09-09T06:17:52.000Z,99270.16
2022-09-09T06:18:43.654Z,99269.34
2022-09-09T06:19:32.820Z,99271.69
2022-09-09T06:20:21.616Z,99270.00
2022-09-09T06:21:11.509Z,99268.53
2022-09-09T06:22:09.188Z,99270.34
2022-09-09T06:22:59.379Z,99273.53
2022-09-09T06:23:47.893Z,99267.31
2022-09-09T06:24:39.221Z,99272.03
2022-09-09T06:25:31.153Z,99275.53
2022-09-09T06:26:23.088Z,99270.84
2022-09-09T06:27:13.769Z,99278.19
2022-09-09T06:28:03.169Z,99274.53
2022-09-09T06:28:53.896Z,99274.88
2022-09-09T06:29:42.028Z,99269.50
2022-09-09T06:30:30.383Z,99274.53
2022-09-09T06:31:29.736Z,99270.84
2022-09-09T06:32:17.800Z,99271.19
2022-09-09T06:33:06.062Z,99267.84
2022-09-09T06:33:58.083Z,99273.19
2022-09-09T06:34:49.692Z,99267.69
2022-09-09T06:35:40.220Z,99271.72
2022-09-09T06:36:38.115Z,99272.69
2022-09-09T06:37:28.588Z,99270.69
2022-09-09T06:38:18.939Z,99269.03
2022-09-09T06:39:14.456Z,99271.53
2022-09-09T06:40:03.730Z,99275.69
2022-09-09T06:40:55.735Z,99274.53
2022-09-09T06:41:54.360Z,99277.38
2022-09-09T06:42:40.688Z,99275.03
2022-09-09T06:43:30.806Z,99273.19
2022-09-09T06:44:21.622Z,99269.84
2022-09-09T06:45:10.716Z,99271.03
2022-09-09T06:46:11.345Z,99267.53
2022-09-09T06:47:07.854Z,99271.88
2022-09-09T06:47:56.382Z,99266.88
2022-09-09T06:48:44.304Z,99273.88
2022-09-09T06:49:32.656Z,99273.53
2022-09-09T06:50:20.851Z,99275.69
2022-09-09T06:51:10.507Z,99272.34
2022-09-09T06:52:05.618Z,99277.88
2022-09-09T06:52:56.788Z,99279.25
2022-09-09T06:53:48.073Z,99273.53
2022-09-09T06:55:21.835Z,99287.44
2022-09-09T06:56:14.782Z,99277.72
2022-09-09T06:57:20.795Z,99275.88
2022-09-09T06:58:11.443Z,99285.59
2022-09-09T06:59:00.273Z,99290.75
2022-09-09T06:59:49.042Z,99289.09
2022-09-09T07:00:36.982Z,99286.25
2022-09-09T07:01:26.114Z,99294.25
2022-09-09T07:02:19.865Z,99293.59
2022-09-09T07:03:07.923Z,99294.75
2022-09-09T07:04:00.381Z,99289.25
2022-09-09T07:04:49.762Z,99287.44
2022-09-09T07:05:40.274Z,99290.28
2022-09-09T07:06:35.330Z,99288.75
2022-09-09T07:07:31.250Z,99279.06
2022-09-09T07:08:21.247Z,99283.75
2022-09-09T07:09:12.675Z,99290.63
2022-09-09T07:10:03.959Z,99284.25
2022-09-09T07:10:55.616Z,99290.63
2022-09-09T07:11:46.328Z,99292.25
2022-09-09T07:12:44.332Z,99296.78
2022-09-09T07:13:38.201Z,99293.63
2022-09-09T07:14:28.311Z,99287.78
2022-09-09T07:15:18.208Z,99295.78
2022-09-09T07:16:08.271Z,99299.47
2022-09-09T07:16:59.525Z,99296.94
2022-09-09T07:17:53.134Z,99296.63
2022-09-09T07:18:42.898Z,99289.41
2022-09-09T07:19:32.662Z,99293.94
2022-09-09T07:20:22.921Z,99291.59
2022-09-09T07:21:12.386Z,99292.97
2022-09-09T07:22:03.814Z,99287.94
2022-09-09T07:22:59.576Z,99295.63
2022-09-09T07:23:53.004Z,99296.78
2022-09-09T07:24:44.786Z,99284.25
2022-09-09T07:25:37.002Z,99293.78
2022-09-09T07:26:27.269Z,99293.63
2022-09-09T07:27:16.614Z,99286.44
2022-09-09T07:28:08.627Z,99294.28
2022-09-09T07:28:56.664Z,99293.28
2022-09-09T07:29:45.503Z,99290.09
2022-09-09T07:30:35.582Z,99287.59
2022-09-09T07:31:25.428Z,99284.94
2022-09-09T07:32:14.633Z,99293.59
2022-09-09T07:33:03.101Z,99286.09
2022-09-09T07:33:58.733Z,99294.59
2022-09-09T07:34:47.397Z,99293.13
2022-09-09T07:35:36.604Z,99299.28
2022-09-09T07:36:33.878Z,99292.25
2022-09-09T07:37:23.572Z,99299.28
2022-09-09T07:38:12.817Z,99294.09
2022-09-09T07:39:09.979Z,99302.97
2022-09-09T07:40:00.733Z,99300.97
2022-09-09T07:40:53.329Z,99296.63
2022-09-09T07:41:43.534Z,99299.28
2022-09-09T07:42:35.282Z,99301.66
2022-09-09T07:43:27.806Z,99303.97
2022-09-09T07:44:26.117Z,99305.28
2022-09-09T07:45:13.774Z,99298.81
2022-09-09T07:46:06.923Z,99301.50
2022-09-09T07:46:59.032Z,99294.47
2022-09-09T07:47:51.788Z,99299.97
2022-09-09T07:48:44.060Z,99301.66
2022-09-09T07:49:36.671Z,99301.66
2022-09-09T07:50:27.885Z,99301.00
2022-09-09T07:51:19.379Z,99308.47
2022-09-09T07:52:09.344Z,99303.81
2022-09-09T07:53:05.887Z,99299.63
2022-09-09T07:53:58.263Z,99299.78
2022-09-09T07:54:50.438Z,99299.13
2022-09-09T07:55:41.815Z,99305.66
2022-09-09T07:56:33.701Z,99307.66
2022-09-09T07:57:23.048Z,99308.16
2022-09-09T07:58:13.572Z,99304.16
2022-09-09T07:59:02.969Z,99307.97
2022-09-09T07:59:54.166Z,99307.81
2022-09-09T08:00:45.442Z,99321.03
2022-09-09T08:01:36.965Z,99310.00
2022-09-09T08:02:25.906Z,99309.19
2022-09-09T08:03:16.207Z,99305.66
2022-09-09T08:04:05.594Z,99315.50
2022-09-09T08:04:55.269Z,99304.47
2022-09-09T08:05:43.078Z,99307.31
2022-09-09T08:06:31.253Z,99306.66
2022-09-09T08:07:17.431Z,99310.66
2022-09-09T08:08:07.438Z,99297.63
2022-09-09T08:08:55.724Z,99310.66
2022-09-09T08:09:45.522Z,99313.66
2022-09-09T08:10:35.324Z,99307.31
2022-09-09T08:11:27.691Z,99307.00
2022-09-09T08:12:17.487Z,99312.34
2022-09-09T08:13:17.784Z,99310.66
2022-09-09T08:14:05.589Z,99316.66
2022-09-09T08:14:55.871Z,99305.97
2022-09-09T08:15:44.202Z,99305.31
2022-09-09T08:16:35.766Z,99314.69
2022-09-09T08:17:25.229Z,99301.50
2022-09-09T08:18:18.376Z,99311.00
2022-09-09T08:19:06.216Z,99303.13
2022-09-09T08:19:56.704Z,99310.16
2022-09-09T08:20:44.681Z,99306.66
2022-09-09T08:21:34.256Z,99304.34
2022-09-09T08:22:23.015Z,99313.34
2022-09-09T08:23:15.465Z,99307.66
2022-09-09T08:24:03.972Z,99305.16
2022-09-09T08:24:53.141Z,99305.00
2022-09-09T08:25:42.517Z,99300.63
2022-09-09T08:26:30.549Z,99309.34
2022-09-09T08:27:20.134Z,99307.31
2022-09-09T08:28:11.617Z,99304.00
2022-09-09T08:29:00.602Z,99301.50
2022-09-09T08:29:49.264Z,99307.16
2022-09-09T08:30:36.430Z,99310.66
2022-09-09T08:32:13.984Z,99309.84
2022-09-09T08:33:03.066Z,99307.16
2022-09-09T08:33:58.061Z,99310.50
2022-09-09T08:34:46.744Z,99312.34
2022-09-09T08:35:35.740Z,99305.81
2022-09-09T08:36:24.891Z,99304.81
2022-09-09T08:37:14.371Z,99307.66
2022-09-09T08:38:07.662Z,99312.34
2022-09-09T08:39:07.539Z,99307.00
2022-09-09T08:39:58.701Z,99307.66
2022-09-09T08:40:48.090Z,99314.69
2022-09-09T08:41:31.585Z,99307.66
2022-09-09T08:42:28.787Z,99314.69
2022-09-09T08:43:21.273Z,99316.34
2022-09-09T08:44:20.353Z,99304.66
2022-09-09T08:45:29.333Z,99313.84
2022-09-09T08:46:38.196Z,99313.84
2022-09-09T08:47:31.764Z,99307.66
2022-09-09T08:48:21.947Z,99305.00
2022-09-09T08:49:14.230Z,99319.72
2022-09-09T08:50:17.636Z,99309.34
2022-09-09T08:51:10.217Z,99321.19
2022-09-09T08:52:02.865Z,99315.84
2022-09-09T08:52:49.228Z,99313.69
2022-09-09T08:53:39.795Z,99322.03
2022-09-09T08:54:51.201Z,99320.03
2022-09-09T08:55:37.142Z,99322.56
2022-09-09T08:56:25.318Z,99315.03
2022-09-09T08:57:14.325Z,99316.66
2022-09-09T08:57:56.621Z,99315.69
2022-09-09T08:58:49.889Z,99326.38
2022-09-09T08:59:41.548Z,99316.50
2022-09-09T09:00:33.750Z,99319.72
2022-09-09T09:01:15.521Z,99322.03
2022-09-09T09:02:22.632Z,99320.03
2022-09-09T09:03:14.324Z,99319.72
2022-09-09T09:04:11.712Z,99320.88
2022-09-09T09:04:56.613Z,99316.66
2022-09-09T09:05:57.064Z,99325.56
2022-09-09T09:07:06.917Z,99323.19
2022-09-09T09:08:10.414Z,99322.03
2022-09-09T09:09:14.248Z,99317.69
2022-09-09T09:10:15.189Z,99324.38
2022-09-09T09:11:13.536Z,99320.00
2022-09-09T09:12:03.648Z,99321.69
2022-09-09T09:12:53.944Z,99321.84
2022-09-09T09:13:35.044Z,99319.88
2022-09-09T09:15:32.900Z,99318.19
2022-09-09T09:16:30.666Z,99322.84
2022-09-09T09:17:21.492Z,99317.50
2022-09-09T09:18:10.383Z,99318.34
2022-09-09T09:19:03.305Z,99319.72
2022-09-09T09:19:51.151Z,99320.19
2022-09-09T09:20:49.870Z,99328.41
2022-09-09T09:21:41.281Z,99326.88
2022-09-09T09:22:48.288Z,99333.09
2022-09-09T09:23:46.479Z,99327.91
2022-09-09T09:24:37.974Z,99322.84
2022-09-09T09:25:31.345Z,99322.56
2022-09-09T09:26:21.640Z,99329.03
2022-09-09T09:27:09.499Z,99329.84
2022-09-09T09:28:03.262Z,99331.69
2022-09-09T09:30:03.161Z,99325.06
2022-09-09T09:30:50.005Z,99327.19
2022-09-09T09:31:40.792Z,99319.03
2022-09-09T09:32:32.002Z,99322.84
2022-09-09T09:33:26.565Z,99321.53
2022-09-09T09:35:22.520Z,99317.03
2022-09-09T09:36:14.068Z,99325.22
2022-09-09T09:37:10.677Z,99320.72
2022-09-09T09:41:39.587Z,99318.19
2022-09-09T09:42:35.024Z,99304.66
2022-09-09T09:43:32.226Z,99320.38
2022-09-09T09:44:35.797Z,99320.38
2022-09-09T09:45:55.237Z,99320.00
2022-09-09T09:46:52.850Z,99317.34
2022-09-09T09:47:46.465Z,99321.84
2022-09-09T09:48:40.667Z,99319.16
2022-09-09T09:49:34.549Z,99315.66
2022-09-09T09:51:34.584Z,99315.69
2022-09-09T09:52:27.588Z,99304.66
2022-09-09T09:53:21.451Z,99304.00
2022-09-09T09:54:22.061Z,99313.50
2022-09-09T09:55:18.184Z,99322.72
2022-09-09T09:56:07.599Z,99323.22
2022-09-09T09:56:58.484Z,99313.34
2022-09-09T09:57:49.168Z,99317.03
2022-09-09T09:58:39.438Z,99310.50
2022-09-09T09:59:40.717Z,99312.19
2022-09-09T10:00:35.879Z,99323.38
2022-09-09T10:01:26.269Z,99312.34
2022-09-09T10:02:25.876Z,99318.19
2022-09-09T10:03:25.618Z,99317.84
2022-09-09T10:04:33.016Z,99311.00
2022-09-09T10:05:37.806Z,99320.53
2022-09-09T10:06:28.479Z,99326.53
2022-09-09T10:07:26.957Z,99325.38
2022-09-09T10:08:09.916Z,99327.38
2022-09-09T10:09:04.073Z,99321.03
2022-09-09T10:09:56.597Z,99317.69
2022-09-09T10:10:52.893Z,99320.03
2022-09-09T10:11:46.544Z,99314.19
2022-09-09T10:12:31.648Z,99318.03
2022-09-09T10:13:25.890Z,99317.19
2022-09-09T10:14:38.447Z,99326.69
2022-09-09T10:15:55.597Z,99318.03
2022-09-09T10:17:06.034Z,99318.69
2022-09-09T10:17:58.490Z,99308.16
2022-09-09T10:18:40.527Z,99320.69
2022-09-09T10:19:31.453Z,99313.34
2022-09-09T10:20:24.841Z,99312.84
2022-09-09T10:21:33.052Z,99312.69
2022-09-09T10:22:37.148Z,99320.38
2022-09-09T10:23:32.817Z,99314.34
2022-09-09T10:24:25.533Z,99312.00
2022-09-09T10:25:14.208Z,99315.69
2022-09-09T10:26:20.601Z,99318.19
2022-09-09T10:27:29.192Z,99309.84
2022-09-09T10:28:26.927Z,99318.50
2022-09-09T10:29:22.058Z,99306.66
2022-09-09T10:30:28.590Z,99315.50
2022-09-09T10:31:40.840Z,99316.31
2022-09-09T10:32:40.938Z,99322.38
2022-09-09T10:33:35.306Z,99305.66
2022-09-09T10:34:47.478Z,99307.00
2022-09-09T10:35:54.899Z,99305.16
2022-09-09T10:36:47.423Z,99298.81
2022-09-09T10:37:32.208Z,99308.16
2022-09-09T10:38:29.302Z,99317.69
2022-09-09T10:39:33.220Z,99321.34
2022-09-09T10:40:23.966Z,99314.03
2022-09-09T10:41:17.900Z,99306.66
2022-09-09T10:42:03.254Z,99303.66
2022-09-09T10:42:53.531Z,99303.31
2022-09-09T10:44:00.177Z,99295.09